createdAt,value
2023-05-15T00:01:05.366Z,3.90
2023-05-15T00:06:10.946Z,4.70
2023-05-15T00:11:15.908Z,4.30
2023-05-15T00:16:21.023Z,4.80
2023-05-15T00:21:25.256Z,3.90
2023-05-15T00:26:29.605Z,3.50
2023-05-15T00:31:34.204Z,4.30
2023-05-15T00:36:37.719Z,4.30
2023-05-15T00:41:42.142Z,4.00
2023-05-15T00:46:48.020Z,4.70
2023-05-15T00:51:52.571Z,4.40
2023-05-15T00:57:01.912Z,4.20
2023-05-15T01:02:06.293Z,3.80
2023-05-15T01:07:11.460Z,5.10
2023-05-15T01:12:18.072Z,5.10
2023-05-15T01:17:21.959Z,4.50
2023-05-15T01:22:45.432Z,4.90
2023-05-15T01:27:55.603Z,4.80
2023-05-15T01:33:30.818Z,5.20
2023-05-15T01:38:54.505Z,4.70
2023-05-15T01:44:17.656Z,4.80
2023-05-15T01:49:27.790Z,4.70
2023-05-15T01:54:35.167Z,5.60
2023-05-15T01:59:41.317Z,5.30
2023-05-15T02:04:47.333Z,5.80
2023-05-15T02:09:55.764Z,6.10
2023-05-15T02:15:01.104Z,5.20
2023-05-15T02:20:09.469Z,6.20
2023-05-15T02:25:14.438Z,6.10
2023-05-15T02:30:36.152Z,6.40
2023-05-15T02:36:01.083Z,5.40
2023-05-15T02:41:06.945Z,5.90
2023-05-15T02:46:12.518Z,5.50
2023-05-15T02:51:16.997Z,6.50
2023-05-15T02:56:23.020Z,5.40
2023-05-15T03:01:27.922Z,6.10
2023-05-15T03:06:32.423Z,6.50
2023-05-15T03:11:37.072Z,6.50
2023-05-15T03:16:40.761Z,5.90
2023-05-15T03:21:45.718Z,6.20
2023-05-15T03:26:50.422Z,6.40
2023-05-15T03:31:54.439Z,5.70
2023-05-15T03:36:59.808Z,6.40
2023-05-15T03:42:05.958Z,6.20
2023-05-15T03:47:10.325Z,6.00
2023-05-15T03:52:14.802Z,7.70
2023-05-15T03:57:19.093Z,6.10
2023-05-15T04:02:24.201Z,5.80
2023-05-15T04:07:29.049Z,6.60
2023-05-15T04:12:34.727Z,5.60
2023-05-15T04:17:38.159Z,6.70
2023-05-15T04:22:46.076Z,5.60
2023-05-15T04:27:49.805Z,5.20
2023-05-15T04:32:54.820Z,5.50
2023-05-15T04:37:58.395Z,6.10
2023-05-15T04:43:04.800Z,5.30
2023-05-15T04:48:10.101Z,5.30
2023-05-15T04:53:17.198Z,5.10
2023-05-15T04:58:21.723Z,5.20
2023-05-15T05:03:25.300Z,5.20
2023-05-15T05:08:30.657Z,4.80
2023-05-15T05:13:35.148Z,4.60
2023-05-15T05:18:40.344Z,4.80
2023-05-15T05:23:46.471Z,4.90
2023-05-15T05:28:51.459Z,5.30
2023-05-15T05:33:56.942Z,5.80
2023-05-15T05:39:01.969Z,4.60
2023-05-15T05:44:06.865Z,6.50
2023-05-15T05:49:11.646Z,5.10
2023-05-15T05:54:19.036Z,6.50
2023-05-15T05:59:23.439Z,6.80
2023-05-15T06:04:30.180Z,6.80
2023-05-15T06:09:35.485Z,5.80
2023-05-15T06:14:39.749Z,5.10
2023-05-15T06:19:44.679Z,5.90
2023-05-15T06:24:49.978Z,6.90
2023-05-15T06:30:01.412Z,5.90
2023-05-15T06:35:07.528Z,5.30
2023-05-15T06:40:12.512Z,6.00
2023-05-15T06:45:17.591Z,6.10
2023-05-15T06:50:22.471Z,5.90
2023-05-15T06:55:27.733Z,6.40
2023-05-15T07:00:32.850Z,5.80
2023-05-15T07:05:37.475Z,8.40
2023-05-15T07:10:40.913Z,6.20
2023-05-15T07:15:45.604Z,6.20
2023-05-15T07:20:50.142Z,6.20
2023-05-15T07:25:56.604Z,5.30
2023-05-15T07:31:03.128Z,5.80
2023-05-15T07:36:08.204Z,6.60
2023-05-15T07:41:13.343Z,5.70
2023-05-15T07:46:17.835Z,6.50
2023-05-15T07:51:21.565Z,5.70
2023-05-15T07:56:25.623Z,5.20
2023-05-15T08:01:31.387Z,5.70
2023-05-15T08:06:38.596Z,5.00
2023-05-15T08:11:44.270Z,5.70
2023-05-15T08:16:52.432Z,5.40
2023-05-15T08:21:55.869Z,6.40
2023-05-15T08:27:00.819Z,5.20
2023-05-15T08:32:05.765Z,7.20
2023-05-15T08:37:10.476Z,7.60
2023-05-15T08:42:34.101Z,7.10
2023-05-15T08:47:41.499Z,7.80
2023-05-15T08:52:47.855Z,6.40
2023-05-15T08:57:55.291Z,7.00
2023-05-15T09:03:02.293Z,6.90
2023-05-15T09:13:13.976Z,7.40
2023-05-15T09:18:19.086Z,8.30
2023-05-15T09:23:27.970Z,6.80
2023-05-15T09:28:35.470Z,7.10
2023-05-15T09:33:41.005Z,7.20
2023-05-15T09:38:49.285Z,8.30
2023-05-15T09:43:57.317Z,6.80
2023-05-15T09:49:02.374Z,7.60
2023-05-15T09:54:07.750Z,7.50
2023-05-15T09:59:16.832Z,8.50
2023-05-15T10:04:21.866Z,8.20
2023-05-15T10:09:34.917Z,8.50
2023-05-15T10:14:39.836Z,9.00
2023-05-15T10:19:57.184Z,9.30
2023-05-15T10:25:22.995Z,8.10
2023-05-15T10:30:29.118Z,11.10
2023-05-15T10:35:36.606Z,11.50
2023-05-15T10:40:42.477Z,8.20
2023-05-15T10:45:47.590Z,8.50
2023-05-15T10:50:52.596Z,9.80
2023-05-15T10:55:57.883Z,12.40
2023-05-15T11:01:02.531Z,9.60
2023-05-15T11:06:13.032Z,11.10
2023-05-15T11:11:58.573Z,8.90
2023-05-15T11:17:05.799Z,8.50
2023-05-15T11:22:20.546Z,7.10
2023-05-15T11:27:28.720Z,8.40
2023-05-15T11:32:49.116Z,6.70
2023-05-15T11:37:57.877Z,7.80
2023-05-15T11:43:20.718Z,6.30
2023-05-15T11:48:39.010Z,5.90
2023-05-15T11:53:44.726Z,6.40
2023-05-15T11:58:51.800Z,5.90
2023-05-15T12:03:57.151Z,6.00
2023-05-15T12:09:03.670Z,5.80
2023-05-15T12:14:13.275Z,6.20
2023-05-15T12:19:19.536Z,6.10
2023-05-15T12:24:24.402Z,5.00
2023-05-15T12:29:29.708Z,5.80
2023-05-15T12:34:35.721Z,5.20
2023-05-15T12:40:15.433Z,6.50
2023-05-15T12:45:21.833Z,4.50
2023-05-15T12:50:28.368Z,4.80
2023-05-15T12:55:41.233Z,4.00
2023-05-15T13:00:49.027Z,3.50
2023-05-15T13:05:54.889Z,3.70
2023-05-15T13:11:02.152Z,3.10
2023-05-15T13:16:10.292Z,4.50
2023-05-15T13:21:15.235Z,3.60
2023-05-15T13:26:22.101Z,4.40
2023-05-15T13:31:27.080Z,3.10
2023-05-15T13:36:32.333Z,3.00
2023-05-15T13:41:37.740Z,3.00
2023-05-15T13:46:42.236Z,3.80
2023-05-15T13:51:46.798Z,3.10
2023-05-15T13:56:54.886Z,3.80
2023-05-15T14:02:08.099Z,3.50
2023-05-15T14:07:16.058Z,3.40
2023-05-15T14:12:21.980Z,3.50
2023-05-15T14:17:28.673Z,3.80
2023-05-15T14:22:34.213Z,4.60
2023-05-15T14:27:43.472Z,4.00
2023-05-15T14:32:48.369Z,4.90
2023-05-15T14:37:53.473Z,3.90
2023-05-15T14:42:58.702Z,4.30
2023-05-15T14:48:04.218Z,3.90
2023-05-15T14:53:08.505Z,4.50
2023-05-15T14:58:14.620Z,3.40
2023-05-15T15:03:23.984Z,5.40
2023-05-15T15:08:33.060Z,4.10
2023-05-15T15:13:43.545Z,4.70
2023-05-15T15:18:53.743Z,5.80
2023-05-15T15:24:00.475Z,5.70
2023-05-15T15:29:12.288Z,4.50
2023-05-15T15:34:21.420Z,4.50
2023-05-15T15:39:30.565Z,4.90
2023-05-15T15:44:39.611Z,5.10
2023-05-15T15:49:48.816Z,4.80
2023-05-15T15:54:54.102Z,4.80
2023-05-15T16:00:01.109Z,4.10
2023-05-15T16:05:08.819Z,4.60
2023-05-15T16:10:13.706Z,4.20
2023-05-15T16:15:23.059Z,4.70
2023-05-15T16:20:30.089Z,4.80
2023-05-15T16:25:35.827Z,4.70
2023-05-15T16:30:48.748Z,5.70
2023-05-15T16:35:56.968Z,4.60
2023-05-15T16:41:03.034Z,3.90
2023-05-15T16:46:09.639Z,3.70
2023-05-15T16:51:14.709Z,4.50
2023-05-15T16:56:21.698Z,3.40
2023-05-15T17:01:26.028Z,3.20
2023-05-15T17:06:31.533Z,3.70
2023-05-15T17:11:37.056Z,3.30
2023-05-15T17:16:44.083Z,3.50
2023-05-15T17:21:49.360Z,3.00
2023-05-15T17:26:54.432Z,2.80
2023-05-15T17:31:59.009Z,3.20
2023-05-15T17:37:04.871Z,3.00
2023-05-15T17:42:22.134Z,3.40
2023-05-15T17:47:27.022Z,2.30
2023-05-15T17:52:33.374Z,1.90
2023-05-15T17:57:39.511Z,1.90
2023-05-15T18:02:45.806Z,2.20
2023-05-15T18:07:57.948Z,1.80
2023-05-15T18:13:04.268Z,2.00
2023-05-15T18:23:16.118Z,1.80
2023-05-15T18:28:21.308Z,2.40
2023-05-15T18:33:27.623Z,2.20
2023-05-15T18:38:32.610Z,2.50
2023-05-15T18:43:37.455Z,2.20
2023-05-15T18:48:41.568Z,2.50
2023-05-15T18:53:46.192Z,2.20
2023-05-15T18:58:51.372Z,1.70
2023-05-15T19:03:56.190Z,1.90
2023-05-15T19:09:02.461Z,2.40
2023-05-15T19:14:07.515Z,2.60
2023-05-15T19:19:12.628Z,1.80
2023-05-15T19:24:17.331Z,2.70
2023-05-15T19:29:22.167Z,2.60
2023-05-15T19:34:27.173Z,3.10
2023-05-15T19:39:31.764Z,3.50
2023-05-15T19:44:36.629Z,3.40
2023-05-15T19:49:41.873Z,3.60
2023-05-15T19:54:46.417Z,3.90
2023-05-15T19:59:51.599Z,3.50
2023-05-15T20:04:55.989Z,4.00
2023-05-15T20:10:00.317Z,3.80
2023-05-15T20:15:06.001Z,3.90
2023-05-15T20:20:12.651Z,3.30
2023-05-15T20:25:18.141Z,3.90
2023-05-15T20:30:22.883Z,3.30
2023-05-15T20:35:28.460Z,4.10
2023-05-15T20:40:34.268Z,3.90
2023-05-15T20:45:39.240Z,3.80
2023-05-15T20:50:48.176Z,3.90
2023-05-15T20:55:52.788Z,5.10
2023-05-15T21:01:01.797Z,3.70
2023-05-15T21:06:07.878Z,3.20
2023-05-15T21:11:13.014Z,3.70
2023-05-15T21:16:18.458Z,4.10
2023-05-15T21:21:23.701Z,4.80
2023-05-15T21:26:29.093Z,4.80
2023-05-15T21:31:37.539Z,4.40
2023-05-15T21:36:43.373Z,5.20
2023-05-15T21:41:48.412Z,4.80
2023-05-15T21:46:54.761Z,4.30
2023-05-15T21:52:00.624Z,5.70
2023-05-15T21:57:06.134Z,4.90
2023-05-15T22:02:11.834Z,6.70
2023-05-15T22:07:18.380Z,6.90
2023-05-15T22:12:23.436Z,5.90
2023-05-15T22:17:29.575Z,5.40
2023-05-15T22:22:36.548Z,6.00
2023-05-15T22:27:42.225Z,7.80
2023-05-15T22:32:47.977Z,6.60
2023-05-15T22:37:53.046Z,7.50
2023-05-15T22:42:57.986Z,8.10
2023-05-15T22:48:02.768Z,6.00
2023-05-15T22:53:08.073Z,7.00
2023-05-15T22:58:12.978Z,8.30
2023-05-15T23:03:17.661Z,7.80
2023-05-15T23:08:21.790Z,8.10
2023-05-15T23:13:25.569Z,7.20
2023-05-15T23:18:30.139Z,7.30
2023-05-15T23:23:35.055Z,7.20
2023-05-15T23:28:40.393Z,8.50
2023-05-15T23:33:44.065Z,6.30
2023-05-15T23:38:48.436Z,7.70
2023-05-15T23:43:54.866Z,7.40
2023-05-15T23:49:00.520Z,6.70
2023-05-15T23:54:06.272Z,7.00
2023-05-15T23:59:10.185Z,7.20
